| Date | Time | Temp. (oF) | Dew Point (oF) | Rel. Hum. (%) | Press. (in.) | Wind Dir. | Wind Speed (mph) | Hourly Rainfall (in.) |
|
|---|---|---|---|---|---|---|---|---|---|
| 1 | 12/25 | 00:00 | 29 | 26 | 90 | 29.88 | S | 1 | 0.00 |
| 2 | 12/24 | 23:00 | 31 | 27 | 86 | 29.90 | S | 1 | 0.00 |
| 3 | 12/24 | 22:00 | 32 | 27 | 84 | 29.90 | ENE | 0 | 0.00 |
| 4 | 12/24 | 21:00 | 34 | 27 | 78 | 29.90 | ENE | 0 | 0.00 |
| 5 | 12/24 | 20:00 | 37 | 29 | 73 | 29.90 | ENE | 0 | 0.00 |
| 6 | 12/24 | 19:00 | 41 | 30 | 65 | 29.91 | ENE | 0 | 0.00 |
| 7 | 12/24 | 18:00 | 46 | 31 | 56 | 29.91 | ENE | 0 | 0.00 |
| 8 | 12/24 | 17:00 | 51 | 32 | 49 | 29.89 | SSE | 1 | 0.00 |
| 9 | 12/24 | 16:00 | 53 | 32 | 46 | 29.87 | SSE | 6 | 0.00 |
| 10 | 12/24 | 15:00 | 56 | 33 | 43 | 29.87 | E | 4 | 0.00 |
| 11 | 12/24 | 14:00 | 55 | 32 | 43 | 29.88 | E | 2 | 0.00 |
| 12 | 12/24 | 13:00 | 52 | 32 | 48 | 29.90 | S | 3 | 0.00 |
| 13 | 12/24 | 12:00 | 48 | 31 | 53 | 29.92 | SE | 1 | 0.00 |
| 14 | 12/24 | 11:00 | 41 | 31 | 69 | 29.94 | ESE | 1 | 0.00 |
| 15 | 12/24 | 10:00 | 37 | 32 | 83 | 29.96 | NNW | 1 | 0.00 |
| 16 | 12/24 | 09:00 | 31 | 28 | 91 | 29.96 | NNW | 0 | 0.00 |
| 17 | 12/24 | 08:00 | 30 | 26 | 88 | 29.95 | NW | 0 | 0.00 |
| 18 | 12/24 | 07:00 | 31 | 28 | 89 | 29.94 | NW | 1 | 0.00 |
| 19 | 12/24 | 06:00 | 30 | 26 | 86 | 29.92 | N | 2 | 0.00 |
| 20 | 12/24 | 05:00 | 30 | 25 | 82 | 29.91 | NNW | 1 | 0.00 |
| 21 | 12/24 | 04:00 | 31 | 25 | 80 | 29.90 | NNW | 1 | 0.00 |
| 22 | 12/24 | 03:00 | 32 | 25 | 77 | 29.90 | NNW | 0 | 0.00 |
| 23 | 12/24 | 02:00 | 33 | 26 | 76 | 29.89 | SSW | 0 | 0.00 |
| 24 | 12/24 | 01:00 | 34 | 25 | 72 | 29.88 | SSW | 0 | 0.00 |